createdAt,value
2019-02-22T00:01:51.066Z,57.70
2019-02-22T00:04:20.400Z,57.90
2019-02-22T00:06:50.122Z,57.80
2019-02-22T00:09:20.685Z,58.30
2019-02-22T00:11:49.819Z,58.50
2019-02-22T00:14:18.748Z,58.40
2019-02-22T00:16:47.712Z,58.80
2019-02-22T00:19:16.731Z,58.90
2019-02-22T00:21:45.730Z,58.70
2019-02-22T00:24:15.000Z,58.70
2019-02-22T00:26:44.981Z,58.90
2019-02-22T00:29:14.233Z,58.90
2019-02-22T00:31:43.322Z,58.90
2019-02-22T00:34:12.859Z,58.90
2019-02-22T00:36:43.419Z,59.10
2019-02-22T00:39:12.873Z,59.00
2019-02-22T00:41:42.412Z,59.10
2019-02-22T00:44:11.782Z,59.30
2019-02-22T00:46:41.135Z,59.40
2019-02-22T00:49:10.543Z,59.80
2019-02-22T00:51:39.461Z,59.80
2019-02-22T00:54:08.994Z,60.00
2019-02-22T00:56:37.944Z,60.40
2019-02-22T00:59:07.001Z,60.90
2019-02-22T01:01:36.097Z,60.90
2019-02-22T01:04:05.461Z,61.10
2019-02-22T01:06:34.249Z,60.90
2019-02-22T01:09:04.641Z,61.00
2019-02-22T01:11:35.977Z,61.20
2019-02-22T01:14:05.365Z,61.50
2019-02-22T01:16:34.721Z,61.80
2019-02-22T01:19:04.032Z,62.10
2019-02-22T01:21:33.062Z,62.30
2019-02-22T01:24:02.458Z,62.40
2019-02-22T01:26:31.919Z,62.30
2019-02-22T01:29:01.107Z,62.40
2019-02-22T01:31:30.573Z,62.30
2019-02-22T01:34:00.003Z,62.50
2019-02-22T01:36:28.824Z,62.60
2019-02-22T01:38:58.434Z,62.80
2019-02-22T01:41:27.400Z,62.90
2019-02-22T01:43:56.392Z,63.20
2019-02-22T01:46:25.876Z,63.30
2019-02-22T01:48:54.806Z,63.50
2019-02-22T01:51:24.569Z,64.20
2019-02-22T01:53:54.184Z,64.40
2019-02-22T01:56:23.753Z,64.70
2019-02-22T01:58:53.182Z,64.60
2019-02-22T02:01:22.574Z,64.80
2019-02-22T02:03:51.904Z,65.10
2019-02-22T02:06:21.286Z,65.10
2019-02-22T02:08:50.639Z,65.30
2019-02-22T02:11:19.637Z,65.60
2019-02-22T02:13:49.048Z,65.60
2019-02-22T02:16:18.343Z,65.60
2019-02-22T02:18:47.329Z,66.20
2019-02-22T02:21:16.582Z,66.00
2019-02-22T02:23:45.498Z,66.40
2019-02-22T02:26:15.029Z,66.40
2019-02-22T02:28:44.032Z,66.50
2019-02-22T02:31:13.235Z,66.60
2019-02-22T02:33:42.190Z,66.50
2019-02-22T02:36:11.222Z,66.70
2019-02-22T02:38:40.643Z,67.10
2019-02-22T02:41:11.441Z,67.00
2019-02-22T02:43:40.587Z,67.50
2019-02-22T02:46:09.360Z,68.00
2019-02-22T02:48:38.939Z,68.10
2019-02-22T02:51:08.325Z,68.20
2019-02-22T02:53:37.777Z,68.50
2019-02-22T02:56:06.762Z,68.90
2019-02-22T02:58:35.919Z,69.10
2019-02-22T03:01:05.129Z,69.20
2019-02-22T03:03:34.417Z,69.50
2019-02-22T03:06:14.808Z,69.50
2019-02-22T03:08:44.383Z,69.90
2019-02-22T03:11:20.652Z,70.10
2019-02-22T03:13:44.301Z,70.20
2019-02-22T03:16:13.417Z,70.20
2019-02-22T03:18:42.409Z,70.20
2019-02-22T03:21:11.868Z,70.30
2019-02-22T03:23:41.198Z,70.80
2019-02-22T03:26:10.082Z,71.20
2019-02-22T03:28:39.020Z,71.20
2019-02-22T03:31:08.221Z,71.80
2019-02-22T03:33:37.037Z,72.00
2019-02-22T03:36:06.619Z,72.00
2019-02-22T03:38:35.754Z,72.90
2019-02-22T03:41:05.315Z,72.50
2019-02-22T03:43:34.722Z,72.80
2019-02-22T03:46:04.076Z,72.80
2019-02-22T03:48:32.895Z,73.10
2019-02-22T03:51:03.405Z,73.20
2019-02-22T03:53:34.308Z,73.40
2019-02-22T03:56:03.722Z,73.90
2019-02-22T03:58:33.036Z,74.30
2019-02-22T04:01:02.633Z,74.90
2019-02-22T04:03:32.143Z,74.20
2019-02-22T04:06:01.620Z,74.00
2019-02-22T04:08:31.097Z,74.30
2019-02-22T04:11:00.460Z,74.50
2019-02-22T04:13:30.084Z,74.70
2019-02-22T04:15:59.163Z,74.90
2019-02-22T04:18:28.171Z,75.00
2019-02-22T04:20:57.705Z,75.00
2019-02-22T04:23:26.711Z,74.90
2019-02-22T04:25:56.091Z,75.20
2019-02-22T04:28:25.394Z,75.40
2019-02-22T04:30:55.000Z,75.70
2019-02-22T04:33:24.015Z,75.80
2019-02-22T04:35:53.365Z,75.90
2019-02-22T04:38:22.347Z,76.10
2019-02-22T04:40:51.396Z,76.50
2019-02-22T04:43:20.641Z,76.70
2019-02-22T04:45:49.999Z,76.80
2019-02-22T04:48:18.791Z,76.90
2019-02-22T04:50:48.281Z,77.10
2019-02-22T04:53:17.893Z,77.50
2019-02-22T04:55:46.918Z,77.80
2019-02-22T04:58:16.120Z,78.50
2019-02-22T05:00:45.678Z,78.90
2019-02-22T05:03:14.715Z,79.20
2019-02-22T05:05:43.610Z,79.70
2019-02-22T05:08:13.030Z,79.80
2019-02-22T05:10:42.421Z,80.20
2019-02-22T05:13:11.760Z,80.40
2019-02-22T05:15:41.204Z,80.90
2019-02-22T05:18:10.895Z,81.00
2019-02-22T05:20:40.102Z,81.00
2019-02-22T05:23:09.518Z,81.30
2019-02-22T05:25:39.061Z,81.30
2019-02-22T05:28:08.990Z,81.30
2019-02-22T05:30:38.566Z,81.40
2019-02-22T05:33:08.170Z,81.50
2019-02-22T05:35:37.708Z,81.90
2019-02-22T05:38:07.453Z,81.40
2019-02-22T05:40:37.217Z,81.40
2019-02-22T05:43:06.834Z,81.50
2019-02-22T05:45:36.542Z,81.50
2019-02-22T05:48:06.714Z,81.00
2019-02-22T05:50:36.358Z,79.20
2019-02-22T05:53:06.036Z,75.90
2019-02-22T05:55:35.583Z,72.10
2019-02-22T05:58:05.095Z,67.30
2019-02-22T06:00:35.321Z,61.40
2019-02-22T06:03:05.031Z,57.10
2019-02-22T06:05:34.828Z,53.30
2019-02-22T06:08:04.342Z,49.90
2019-02-22T06:10:34.213Z,47.10
2019-02-22T06:13:03.942Z,45.80
2019-02-22T06:15:33.144Z,44.30
2019-02-22T06:18:02.406Z,43.70
2019-02-22T06:20:32.175Z,43.00
2019-02-22T06:23:01.957Z,42.30
2019-02-22T06:25:31.795Z,41.90
2019-02-22T06:28:01.433Z,41.00
2019-02-22T06:30:30.799Z,40.70
2019-02-22T06:33:00.723Z,38.80
2019-02-22T06:35:30.284Z,37.00
2019-02-22T06:38:00.033Z,35.90
2019-02-22T06:40:29.550Z,34.00
2019-02-22T06:42:59.032Z,32.60
2019-02-22T06:45:28.204Z,31.50
2019-02-22T06:47:57.881Z,30.20
2019-02-22T06:50:33.770Z,30.10
2019-02-22T06:52:59.021Z,30.30
2019-02-22T06:55:29.563Z,29.40
2019-02-22T06:57:59.527Z,28.80
2019-02-22T07:00:30.366Z,28.10
2019-02-22T07:03:01.584Z,28.40
2019-02-22T07:05:31.438Z,27.70
2019-02-22T07:08:01.575Z,27.70
2019-02-22T07:10:32.485Z,27.50
2019-02-22T07:13:04.429Z,27.20
2019-02-22T07:15:34.483Z,26.30
2019-02-22T07:18:03.821Z,25.60
2019-02-22T07:20:33.845Z,25.70
2019-02-22T07:23:03.141Z,25.00
2019-02-22T07:25:32.239Z,25.10
2019-02-22T07:28:01.893Z,25.00
2019-02-22T07:30:31.978Z,24.90
2019-02-22T07:33:01.511Z,25.20
2019-02-22T07:35:31.611Z,24.90
2019-02-22T07:38:00.873Z,24.30
2019-02-22T07:40:30.196Z,23.70
2019-02-22T07:43:07.773Z,23.90
2019-02-22T07:45:30.890Z,25.00
2019-02-22T07:48:00.637Z,24.90
2019-02-22T07:50:30.228Z,25.20
2019-02-22T07:52:59.948Z,24.50
2019-02-22T07:55:29.099Z,24.40
2019-02-22T07:57:58.775Z,23.80
2019-02-22T08:00:28.556Z,23.50
2019-02-22T08:02:58.047Z,23.30
2019-02-22T08:05:27.370Z,22.50
2019-02-22T08:07:57.339Z,22.00
2019-02-22T08:10:26.678Z,22.10
2019-02-22T08:12:56.071Z,21.90
2019-02-22T08:15:25.739Z,22.10
2019-02-22T08:17:55.391Z,22.00
2019-02-22T08:20:24.648Z,22.20
2019-02-22T08:22:54.194Z,21.60
2019-02-22T08:25:23.737Z,21.10
2019-02-22T08:27:54.522Z,21.10
2019-02-22T08:30:24.821Z,20.90
2019-02-22T08:32:54.872Z,20.60
2019-02-22T08:35:24.587Z,20.50
2019-02-22T08:37:54.683Z,20.20
2019-02-22T08:40:25.022Z,20.20
2019-02-22T08:42:54.625Z,20.20
2019-02-22T08:45:24.111Z,19.80
2019-02-22T08:47:53.796Z,20.40
2019-02-22T08:50:23.349Z,21.30
2019-02-22T08:52:53.109Z,21.80
2019-02-22T08:55:22.549Z,23.20
2019-02-22T08:57:52.371Z,23.30
2019-02-22T09:00:21.203Z,22.90
2019-02-22T09:02:50.643Z,23.40
2019-02-22T09:05:19.489Z,24.00
2019-02-22T09:07:48.737Z,25.00
2019-02-22T09:10:18.091Z,27.10
2019-02-22T09:12:47.134Z,30.60
2019-02-22T09:15:16.074Z,33.50
2019-02-22T09:17:45.024Z,36.70
2019-02-22T09:20:14.705Z,39.10
2019-02-22T09:22:43.650Z,40.90
2019-02-22T09:25:13.284Z,41.00
2019-02-22T09:27:42.588Z,40.80
2019-02-22T09:30:13.027Z,40.70
2019-02-22T09:32:42.227Z,41.00
2019-02-22T09:35:12.214Z,41.60
2019-02-22T09:37:42.028Z,43.00
2019-02-22T09:40:14.694Z,43.40
2019-02-22T09:42:43.313Z,42.30
2019-02-22T09:45:13.084Z,42.80
2019-02-22T09:47:42.470Z,43.60
2019-02-22T09:50:16.676Z,42.90
2019-02-22T09:52:45.862Z,42.10
2019-02-22T09:55:15.584Z,42.50
2019-02-22T09:57:45.297Z,42.70
2019-02-22T10:00:15.019Z,43.30
2019-02-22T10:02:45.087Z,44.30
2019-02-22T10:05:14.969Z,43.60
2019-02-22T10:07:46.133Z,43.50
2019-02-22T10:10:16.415Z,43.70
2019-02-22T10:12:46.474Z,43.70
2019-02-22T10:15:15.433Z,44.10
2019-02-22T10:17:44.151Z,44.40
2019-02-22T10:20:12.994Z,44.30
2019-02-22T10:22:41.697Z,43.70
2019-02-22T10:25:10.312Z,44.40
2019-02-22T10:27:38.907Z,44.90
2019-02-22T10:30:10.770Z,45.30
2019-02-22T10:32:39.452Z,44.80
2019-02-22T10:35:08.451Z,43.70
2019-02-22T10:37:37.210Z,43.50
2019-02-22T10:40:08.459Z,45.10
2019-02-22T10:42:37.255Z,45.60
2019-02-22T10:45:08.585Z,45.50
2019-02-22T10:47:37.435Z,45.40
2019-02-22T10:50:08.161Z,44.90
2019-02-22T10:52:36.845Z,45.10
2019-02-22T10:55:08.125Z,45.30
2019-02-22T10:57:36.848Z,46.10
2019-02-22T11:00:10.103Z,45.30
2019-02-22T11:02:38.908Z,45.90
2019-02-22T11:05:07.607Z,45.70
2019-02-22T11:07:37.289Z,45.20
2019-02-22T11:10:09.344Z,45.90
2019-02-22T11:12:38.051Z,45.30
2019-02-22T11:15:09.229Z,45.50
2019-02-22T11:17:37.935Z,45.70
2019-02-22T11:20:09.241Z,45.90
2019-02-22T11:22:38.109Z,45.80
2019-02-22T11:25:12.705Z,45.70
2019-02-22T11:27:41.473Z,45.30
2019-02-22T11:30:12.201Z,45.70
2019-02-22T11:32:40.874Z,45.60
2019-02-22T11:35:10.727Z,45.40
2019-02-22T11:37:39.733Z,45.50
2019-02-22T11:40:11.018Z,45.80
2019-02-22T11:42:40.838Z,45.70
2019-02-22T11:45:11.599Z,46.30
2019-02-22T11:47:41.030Z,46.40
2019-02-22T11:50:13.614Z,46.10
2019-02-22T11:52:43.110Z,46.30
2019-02-22T11:55:13.128Z,46.70
2019-02-22T11:57:43.047Z,46.90
2019-02-22T12:00:15.799Z,47.40
2019-02-22T12:02:45.486Z,47.50
2019-02-22T12:05:15.161Z,47.50
2019-02-22T12:07:44.449Z,47.50
2019-02-22T12:10:14.312Z,47.70
2019-02-22T12:12:43.879Z,47.20
2019-02-22T12:15:13.816Z,47.30
2019-02-22T12:17:43.492Z,46.80
2019-02-22T12:20:13.273Z,47.10
2019-02-22T12:22:42.468Z,47.30
2019-02-22T12:25:12.812Z,46.80
2019-02-22T12:27:42.539Z,46.90
2019-02-22T12:30:17.021Z,47.30
2019-02-22T12:32:49.630Z,47.60
2019-02-22T12:35:19.367Z,47.90
2019-02-22T12:37:48.530Z,47.50
2019-02-22T12:40:17.543Z,47.20
2019-02-22T12:42:46.807Z,47.30
2019-02-22T12:45:16.119Z,47.50
2019-02-22T12:47:46.037Z,47.70
2019-02-22T12:50:15.285Z,48.20
2019-02-22T12:52:44.975Z,48.30
2019-02-22T12:55:14.794Z,48.10
2019-02-22T12:57:44.526Z,46.80
2019-02-22T13:00:18.692Z,46.70
2019-02-22T13:02:48.318Z,46.80
2019-02-22T13:05:21.628Z,48.40
2019-02-22T13:07:52.520Z,49.50
2019-02-22T13:10:21.355Z,50.10
2019-02-22T13:12:50.589Z,50.70
2019-02-22T13:15:20.542Z,50.80
2019-02-22T13:17:50.263Z,51.00
2019-02-22T13:20:20.249Z,50.70
2019-02-22T13:22:49.394Z,50.30
2019-02-22T13:25:18.896Z,50.30
2019-02-22T13:27:48.250Z,50.40
2019-02-22T13:30:17.094Z,51.40
2019-02-22T13:32:46.530Z,52.70
2019-02-22T13:35:16.488Z,53.30
2019-02-22T13:37:46.198Z,53.50
2019-02-22T13:40:17.268Z,53.80
2019-02-22T13:42:46.389Z,54.40
2019-02-22T13:45:25.881Z,54.90
2019-02-22T13:47:47.266Z,54.80
2019-02-22T13:50:17.563Z,54.60
2019-02-22T13:52:47.533Z,55.00
2019-02-22T13:55:16.873Z,55.40
2019-02-22T13:57:45.875Z,56.00
2019-02-22T14:00:17.143Z,56.40
2019-02-22T14:02:46.520Z,56.40
2019-02-22T14:05:15.840Z,56.10
2019-02-22T14:07:57.739Z,55.40
2019-02-22T14:10:27.431Z,55.50
2019-02-22T14:12:56.279Z,55.80
2019-02-22T14:15:36.825Z,56.00
2019-02-22T14:17:55.965Z,56.30
2019-02-22T14:20:25.568Z,56.00
2019-02-22T14:22:55.191Z,55.50
2019-02-22T14:25:24.721Z,55.40
2019-02-22T14:27:53.801Z,55.90
2019-02-22T14:30:23.279Z,56.50
2019-02-22T14:32:52.721Z,56.60
2019-02-22T14:35:21.520Z,57.10
2019-02-22T14:37:51.047Z,57.80
2019-02-22T14:40:22.210Z,58.10
2019-02-22T14:42:51.225Z,58.40
2019-02-22T14:45:20.741Z,58.40
2019-02-22T14:47:50.325Z,57.70
2019-02-22T14:50:22.906Z,58.60
2019-02-22T14:52:51.023Z,58.90
2019-02-22T14:55:20.827Z,59.50
2019-02-22T14:57:49.825Z,59.90
2019-02-22T15:00:20.308Z,60.60
2019-02-22T15:02:49.796Z,61.00
2019-02-22T15:05:19.195Z,61.90
2019-02-22T15:07:49.047Z,62.20
2019-02-22T15:10:19.325Z,62.50
2019-02-22T15:12:48.950Z,62.20
2019-02-22T15:15:20.609Z,62.30
2019-02-22T15:18:03.983Z,61.70
2019-02-22T15:20:33.977Z,62.10
2019-02-22T15:23:03.477Z,62.50
2019-02-22T15:25:32.873Z,62.40
2019-02-22T15:28:02.380Z,62.80
2019-02-22T15:30:31.638Z,63.40
2019-02-22T15:33:01.584Z,63.50
2019-02-22T15:35:30.798Z,63.40
2019-02-22T15:37:59.829Z,63.30
2019-02-22T15:40:29.262Z,63.80
2019-02-22T15:42:58.628Z,63.90
2019-02-22T15:45:28.171Z,64.10
2019-02-22T15:47:57.792Z,64.10
2019-02-22T15:50:27.721Z,64.50
2019-02-22T15:52:57.472Z,64.70
2019-02-22T15:55:27.636Z,65.10
2019-02-22T15:57:57.125Z,65.30
2019-02-22T16:00:34.297Z,65.50
2019-02-22T16:03:03.541Z,65.90
2019-02-22T16:05:34.657Z,66.30
2019-02-22T16:08:03.937Z,66.50
2019-02-22T16:10:33.054Z,66.60
2019-02-22T16:13:02.744Z,66.70
2019-02-22T16:15:32.182Z,67.40
2019-02-22T16:18:01.833Z,67.80
2019-02-22T16:20:32.293Z,67.90
2019-02-22T16:23:01.990Z,67.50
2019-02-22T16:25:31.271Z,67.60
2019-02-22T16:28:01.031Z,67.70
2019-02-22T16:30:31.391Z,67.50
2019-02-22T16:33:00.496Z,67.60
2019-02-22T16:35:29.543Z,67.80
2019-02-22T16:37:58.813Z,67.60
2019-02-22T16:40:28.312Z,67.70
2019-02-22T16:42:57.857Z,67.80
2019-02-22T16:45:27.222Z,67.40
2019-02-22T16:47:56.893Z,67.40
2019-02-22T16:50:26.535Z,67.40
2019-02-22T16:52:56.005Z,67.60
2019-02-22T16:55:25.491Z,67.40
2019-02-22T16:57:55.321Z,67.30
2019-02-22T17:00:25.751Z,67.60
2019-02-22T17:02:55.347Z,67.50
2019-02-22T17:05:24.940Z,67.70
2019-02-22T17:07:54.088Z,68.00
2019-02-22T17:10:23.885Z,68.10
2019-02-22T17:12:53.654Z,68.50
2019-02-22T17:15:23.441Z,68.50
2019-02-22T17:17:53.227Z,68.40
2019-02-22T17:20:22.577Z,68.20
2019-02-22T17:22:54.136Z,68.30
2019-02-22T17:25:23.832Z,68.30
2019-02-22T17:27:52.856Z,68.40
2019-02-22T17:30:23.609Z,67.70
2019-02-22T17:32:54.405Z,67.70
2019-02-22T17:35:24.276Z,68.30
2019-02-22T17:37:53.627Z,68.40
2019-02-22T17:40:33.373Z,68.30
2019-02-22T17:43:03.087Z,68.70
2019-02-22T17:45:32.543Z,68.90
2019-02-22T17:48:02.448Z,69.20
2019-02-22T17:50:32.309Z,68.80
2019-02-22T17:53:02.218Z,69.20
2019-02-22T17:55:31.998Z,69.50
2019-02-22T17:58:01.398Z,70.20
2019-02-22T18:00:31.085Z,69.70
2019-02-22T18:03:00.214Z,70.00
2019-02-22T18:05:29.697Z,69.70
2019-02-22T18:07:58.737Z,69.60
2019-02-22T18:10:28.481Z,69.60
2019-02-22T18:12:57.376Z,69.30
2019-02-22T18:15:26.960Z,69.60
2019-02-22T18:17:56.148Z,69.80
2019-02-22T18:20:25.086Z,70.10
2019-02-22T18:22:54.014Z,70.20
2019-02-22T18:25:23.573Z,70.10
2019-02-22T18:27:52.753Z,69.90
2019-02-22T18:30:23.253Z,69.70
2019-02-22T18:32:53.561Z,69.90
2019-02-22T18:35:24.352Z,69.80
2019-02-22T18:37:53.803Z,70.20
2019-02-22T18:40:23.921Z,70.20
2019-02-22T18:42:54.335Z,70.40
2019-02-22T18:45:23.701Z,70.20
2019-02-22T18:47:53.191Z,70.10
2019-02-22T18:50:22.114Z,69.80
2019-02-22T18:52:51.871Z,69.80
2019-02-22T18:55:21.469Z,69.70
2019-02-22T18:57:51.121Z,69.80
2019-02-22T19:00:22.041Z,69.80
2019-02-22T19:02:51.633Z,70.20
2019-02-22T19:05:20.822Z,70.70
2019-02-22T19:07:50.787Z,71.30
2019-02-22T19:10:20.791Z,71.30
2019-02-22T19:12:50.793Z,71.40
2019-02-22T19:15:19.929Z,71.40
2019-02-22T19:17:50.661Z,71.70
2019-02-22T19:20:21.142Z,71.90
2019-02-22T19:22:50.162Z,72.00
2019-02-22T19:25:20.913Z,71.90
2019-02-22T19:27:50.036Z,72.10
2019-02-22T19:30:24.491Z,72.40
2019-02-22T19:32:54.519Z,72.70
2019-02-22T19:35:25.275Z,72.90
2019-02-22T19:37:55.133Z,72.90
2019-02-22T19:40:28.443Z,73.20
2019-02-22T19:42:57.945Z,73.30
2019-02-22T19:45:27.076Z,73.60
2019-02-22T19:47:56.814Z,73.70
2019-02-22T19:50:26.145Z,74.10
2019-02-22T19:52:55.837Z,74.20
2019-02-22T19:55:25.454Z,74.20
2019-02-22T19:57:55.076Z,74.50
2019-02-22T20:00:24.030Z,74.60
2019-02-22T20:02:53.783Z,75.00
2019-02-22T20:05:24.210Z,75.10
2019-02-22T20:07:53.924Z,75.50
2019-02-22T20:10:24.074Z,75.90
2019-02-22T20:12:53.483Z,75.90
2019-02-22T20:15:23.318Z,76.10
2019-02-22T20:17:54.839Z,75.80
2019-02-22T20:20:24.734Z,75.80
2019-02-22T20:22:54.310Z,75.80
2019-02-22T20:25:25.669Z,76.20
2019-02-22T20:27:55.471Z,76.40
2019-02-22T20:30:25.093Z,76.50
2019-02-22T20:32:54.541Z,77.30
2019-02-22T20:35:28.874Z,77.20
2019-02-22T20:37:57.899Z,77.50
2019-02-22T20:40:27.470Z,78.60
2019-02-22T20:42:56.546Z,78.00
2019-02-22T20:45:26.034Z,78.20
2019-02-22T20:48:04.793Z,78.50
2019-02-22T20:50:26.735Z,78.70
2019-02-22T20:52:56.325Z,78.80
2019-02-22T20:55:26.060Z,79.20
2019-02-22T20:57:55.470Z,79.20
2019-02-22T21:00:26.519Z,79.50
2019-02-22T21:02:56.125Z,79.70
2019-02-22T21:05:25.642Z,79.70
2019-02-22T21:07:55.637Z,79.80
2019-02-22T21:10:27.750Z,80.00
2019-02-22T21:12:57.034Z,80.10
2019-02-22T21:15:26.024Z,80.00
2019-02-22T21:17:54.786Z,80.30
2019-02-22T21:20:24.040Z,80.30
2019-02-22T21:22:53.788Z,80.40
2019-02-22T21:25:23.475Z,80.30
2019-02-22T21:27:53.283Z,80.30
2019-02-22T21:30:22.928Z,80.30
2019-02-22T21:32:51.830Z,80.10
2019-02-22T21:35:21.567Z,80.00
2019-02-22T21:37:51.142Z,80.00
2019-02-22T21:40:20.823Z,80.30
2019-02-22T21:42:50.332Z,80.50
2019-02-22T21:45:20.019Z,80.70
2019-02-22T21:47:54.831Z,81.00
2019-02-22T21:50:19.798Z,80.80
2019-02-22T21:52:49.274Z,80.80
2019-02-22T21:55:18.796Z,80.70
2019-02-22T21:57:48.244Z,80.90
2019-02-22T22:00:22.464Z,80.70
2019-02-22T22:02:51.458Z,80.50
2019-02-22T22:05:20.829Z,80.20
2019-02-22T22:07:50.246Z,80.10
2019-02-22T22:10:19.894Z,79.90
2019-02-22T22:12:49.341Z,79.70
2019-02-22T22:15:18.878Z,79.60
2019-02-22T22:17:47.812Z,79.70
2019-02-22T22:20:17.036Z,79.80
2019-02-22T22:22:46.804Z,80.70
2019-02-22T22:25:16.774Z,80.00
2019-02-22T22:27:46.466Z,79.80
2019-02-22T22:30:16.446Z,79.20
2019-02-22T22:32:46.198Z,79.00
2019-02-22T22:35:17.251Z,79.40
2019-02-22T22:37:46.936Z,78.90
2019-02-22T22:40:16.455Z,79.10
2019-02-22T22:42:46.444Z,79.70
2019-02-22T22:45:19.346Z,80.20
2019-02-22T22:47:48.861Z,80.60
2019-02-22T22:50:18.630Z,80.90
2019-02-22T22:52:48.480Z,81.20
2019-02-22T22:55:17.409Z,81.30
2019-02-22T22:57:46.440Z,81.30
2019-02-22T23:00:51.926Z,81.80
2019-02-22T23:03:22.024Z,80.80
2019-02-22T23:05:51.403Z,80.50
2019-02-22T23:08:21.149Z,80.20
2019-02-22T23:10:50.441Z,79.60
2019-02-22T23:13:19.759Z,78.90
2019-02-22T23:15:49.138Z,78.40
2019-02-22T23:18:18.734Z,78.10
2019-02-22T23:20:47.969Z,77.60
2019-02-22T23:23:17.802Z,77.10
2019-02-22T23:25:47.627Z,76.60
2019-02-22T23:28:17.279Z,76.20
2019-02-22T23:30:46.825Z,75.80
2019-02-22T23:33:15.887Z,75.40
2019-02-22T23:35:45.765Z,75.10
2019-02-22T23:38:14.939Z,74.30
2019-02-22T23:40:43.886Z,74.80
2019-02-22T23:43:13.664Z,74.50
2019-02-22T23:45:42.873Z,74.00
2019-02-22T23:48:12.554Z,73.70
2019-02-22T23:50:41.908Z,73.40
2019-02-22T23:53:11.555Z,73.00
2019-02-22T23:55:40.786Z,72.60
2019-02-22T23:58:10.222Z,72.00
